sensor_id;sensor_type;location;lat;lon;timestamp;P1;durP1;ratioP1;P2;durP2;ratioP2
11964;SDS011;6042;41.326;19.826;2022-12-20T00:01:58;9.30;;;7.30;;
11964;SDS011;6042;41.326;19.826;2022-12-20T00:04:27;12.03;;;7.23;;
11964;SDS011;6042;41.326;19.826;2022-12-20T00:06:55;14.50;;;7.83;;
11964;SDS011;6042;41.326;19.826;2022-12-20T00:09:25;7.33;;;6.50;;
11964;SDS011;6042;41.326;19.826;2022-12-20T00:11:54;8.73;;;6.63;;
11964;SDS011;6042;41.326;19.826;2022-12-20T00:14:23;9.73;;;7.20;;
11964;SDS011;6042;41.326;19.826;2022-12-20T00:16:51;8.37;;;6.53;;
11964;SDS011;6042;41.326;19.826;2022-12-20T00:19:20;10.10;;;7.40;;
11964;SDS011;6042;41.326;19.826;2022-12-20T00:21:49;7.50;;;6.53;;
11964;SDS011;6042;41.326;19.826;2022-12-20T00:24:17;10.47;;;6.97;;
11964;SDS011;6042;41.326;19.826;2022-12-20T00:26:53;11.23;;;7.27;;
11964;SDS011;6042;41.326;19.826;2022-12-20T00:29:21;12.40;;;7.47;;
11964;SDS011;6042;41.326;19.826;2022-12-20T00:31:50;8.67;;;6.93;;
11964;SDS011;6042;41.326;19.826;2022-12-20T00:34:20;7.80;;;7.00;;
11964;SDS011;6042;41.326;19.826;2022-12-20T00:36:49;9.53;;;7.43;;
11964;SDS011;6042;41.326;19.826;2022-12-20T00:39:17;9.80;;;7.50;;
11964;SDS011;6042;41.326;19.826;2022-12-20T00:41:47;9.57;;;7.37;;
11964;SDS011;6042;41.326;19.826;2022-12-20T00:44:17;10.53;;;7.73;;
11964;SDS011;6042;41.326;19.826;2022-12-20T00:46:46;8.93;;;7.40;;
11964;SDS011;6042;41.326;19.826;2022-12-20T00:49:15;8.27;;;7.43;;
11964;SDS011;6042;41.326;19.826;2022-12-20T00:51:43;13.07;;;8.00;;
11964;SDS011;6042;41.326;19.826;2022-12-20T00:54:12;8.77;;;7.73;;
11964;SDS011;6042;41.326;19.826;2022-12-20T00:56:41;8.80;;;7.60;;
11964;SDS011;6042;41.326;19.826;2022-12-20T00:59:10;10.87;;;7.00;;
11964;SDS011;6042;41.326;19.826;2022-12-20T01:01:40;11.57;;;7.17;;
11964;SDS011;6042;41.326;19.826;2022-12-20T01:04:10;9.30;;;7.07;;
11964;SDS011;6042;41.326;19.826;2022-12-20T01:06:41;10.57;;;6.70;;
11964;SDS011;6042;41.326;19.826;2022-12-20T01:09:09;8.23;;;6.80;;
11964;SDS011;6042;41.326;19.826;2022-12-20T01:11:38;8.63;;;6.77;;
11964;SDS011;6042;41.326;19.826;2022-12-20T01:14:09;7.90;;;6.80;;
11964;SDS011;6042;41.326;19.826;2022-12-20T01:16:42;11.80;;;6.37;;
11964;SDS011;6042;41.326;19.826;2022-12-20T01:19:13;8.30;;;6.57;;
11964;SDS011;6042;41.326;19.826;2022-12-20T01:21:44;9.77;;;6.70;;
11964;SDS011;6042;41.326;19.826;2022-12-20T01:24:14;9.50;;;6.50;;
11964;SDS011;6042;41.326;19.826;2022-12-20T01:26:44;10.67;;;6.50;;
11964;SDS011;6042;41.326;19.826;2022-12-20T01:29:14;7.47;;;5.63;;
11964;SDS011;6042;41.326;19.826;2022-12-20T01:31:45;8.30;;;6.03;;
11964;SDS011;6042;41.326;19.826;2022-12-20T01:34:13;9.93;;;6.47;;
11964;SDS011;6042;41.326;19.826;2022-12-20T01:36:43;6.50;;;5.47;;
11964;SDS011;6042;41.326;19.826;2022-12-20T01:39:13;8.67;;;6.17;;
11964;SDS011;6042;41.326;19.826;2022-12-20T01:41:43;8.80;;;6.07;;
11964;SDS011;6042;41.326;19.826;2022-12-20T01:47:22;7.60;;;5.97;;
11964;SDS011;6042;41.326;19.826;2022-12-20T01:49:53;9.57;;;5.87;;
11964;SDS011;6042;41.326;19.826;2022-12-20T01:52:25;7.23;;;6.10;;
11964;SDS011;6042;41.326;19.826;2022-12-20T01:55:00;6.07;;;5.33;;
11964;SDS011;6042;41.326;19.826;2022-12-20T01:57:33;6.60;;;5.17;;
11964;SDS011;6042;41.326;19.826;2022-12-20T02:00:07;7.57;;;5.27;;
11964;SDS011;6042;41.326;19.826;2022-12-20T02:02:42;7.97;;;5.97;;
11964;SDS011;6042;41.326;19.826;2022-12-20T02:05:14;6.80;;;5.27;;
11964;SDS011;6042;41.326;19.826;2022-12-20T02:07:44;7.40;;;5.57;;
11964;SDS011;6042;41.326;19.826;2022-12-20T02:10:16;6.03;;;5.40;;
11964;SDS011;6042;41.326;19.826;2022-12-20T02:12:47;7.70;;;5.43;;
11964;SDS011;6042;41.326;19.826;2022-12-20T02:15:29;8.07;;;5.40;;
11964;SDS011;6042;41.326;19.826;2022-12-20T02:18:14;7.03;;;5.13;;
11964;SDS011;6042;41.326;19.826;2022-12-20T02:24:06;11.20;;;6.10;;
11964;SDS011;6042;41.326;19.826;2022-12-20T02:27:07;8.23;;;5.70;;
11964;SDS011;6042;41.326;19.826;2022-12-20T02:30:06;6.07;;;5.23;;
11964;SDS011;6042;41.326;19.826;2022-12-20T02:32:38;6.60;;;5.90;;
11964;SDS011;6042;41.326;19.826;2022-12-20T02:35:12;9.30;;;6.50;;
11964;SDS011;6042;41.326;19.826;2022-12-20T02:37:50;6.50;;;5.90;;
11964;SDS011;6042;41.326;19.826;2022-12-20T02:40:21;6.70;;;5.60;;
11964;SDS011;6042;41.326;19.826;2022-12-20T02:42:52;7.63;;;5.60;;
11964;SDS011;6042;41.326;19.826;2022-12-20T02:45:26;8.13;;;5.70;;
11964;SDS011;6042;41.326;19.826;2022-12-20T02:48:00;8.20;;;5.63;;
11964;SDS011;6042;41.326;19.826;2022-12-20T02:50:34;7.07;;;5.73;;
11964;SDS011;6042;41.326;19.826;2022-12-20T02:53:06;7.33;;;5.70;;
11964;SDS011;6042;41.326;19.826;2022-12-20T02:55:39;6.80;;;5.93;;
11964;SDS011;6042;41.326;19.826;2022-12-20T02:58:15;7.83;;;5.67;;
11964;SDS011;6042;41.326;19.826;2022-12-20T03:00:51;7.47;;;5.60;;
11964;SDS011;6042;41.326;19.826;2022-12-20T03:03:23;9.20;;;5.97;;
11964;SDS011;6042;41.326;19.826;2022-12-20T03:05:53;6.00;;;5.40;;
11964;SDS011;6042;41.326;19.826;2022-12-20T03:08:23;7.33;;;5.53;;
11964;SDS011;6042;41.326;19.826;2022-12-20T03:10:53;7.00;;;4.90;;
11964;SDS011;6042;41.326;19.826;2022-12-20T03:13:22;6.53;;;5.60;;
11964;SDS011;6042;41.326;19.826;2022-12-20T03:16:04;7.83;;;5.10;;
11964;SDS011;6042;41.326;19.826;2022-12-20T03:18:33;6.07;;;4.63;;
11964;SDS011;6042;41.326;19.826;2022-12-20T03:21:02;6.87;;;4.43;;
11964;SDS011;6042;41.326;19.826;2022-12-20T03:23:31;6.00;;;4.03;;
11964;SDS011;6042;41.326;19.826;2022-12-20T03:26:00;5.83;;;4.97;;
11964;SDS011;6042;41.326;19.826;2022-12-20T03:28:34;8.10;;;4.90;;
11964;SDS011;6042;41.326;19.826;2022-12-20T03:31:07;5.87;;;4.57;;
11964;SDS011;6042;41.326;19.826;2022-12-20T03:33:43;5.97;;;4.87;;
11964;SDS011;6042;41.326;19.826;2022-12-20T03:36:17;6.43;;;5.00;;
11964;SDS011;6042;41.326;19.826;2022-12-20T03:38:53;5.00;;;4.40;;
11964;SDS011;6042;41.326;19.826;2022-12-20T03:41:24;5.57;;;4.97;;
11964;SDS011;6042;41.326;19.826;2022-12-20T03:43:53;6.37;;;4.67;;
11964;SDS011;6042;41.326;19.826;2022-12-20T03:46:24;9.00;;;4.67;;
11964;SDS011;6042;41.326;19.826;2022-12-20T03:48:54;6.30;;;4.80;;
11964;SDS011;6042;41.326;19.826;2022-12-20T03:51:23;5.80;;;4.90;;
11964;SDS011;6042;41.326;19.826;2022-12-20T03:53:52;7.10;;;4.73;;
11964;SDS011;6042;41.326;19.826;2022-12-20T03:56:27;7.17;;;4.83;;
11964;SDS011;6042;41.326;19.826;2022-12-20T03:58:55;7.90;;;5.13;;
11964;SDS011;6042;41.326;19.826;2022-12-20T04:01:26;5.53;;;4.73;;
11964;SDS011;6042;41.326;19.826;2022-12-20T04:03:56;8.33;;;4.00;;
11964;SDS011;6042;41.326;19.826;2022-12-20T04:06:25;5.83;;;4.60;;
11964;SDS011;6042;41.326;19.826;2022-12-20T04:08:55;7.60;;;4.57;;
11964;SDS011;6042;41.326;19.826;2022-12-20T04:11:29;10.63;;;4.20;;
11964;SDS011;6042;41.326;19.826;2022-12-20T04:14:05;5.00;;;4.30;;
11964;SDS011;6042;41.326;19.826;2022-12-20T04:16:36;6.73;;;4.67;;
11964;SDS011;6042;41.326;19.826;2022-12-20T04:19:05;7.10;;;4.73;;
11964;SDS011;6042;41.326;19.826;2022-12-20T04:21:44;6.67;;;4.87;;
11964;SDS011;6042;41.326;19.826;2022-12-20T04:24:15;9.10;;;4.73;;
11964;SDS011;6042;41.326;19.826;2022-12-20T04:27:09;8.67;;;5.30;;
11964;SDS011;6042;41.326;19.826;2022-12-20T04:29:38;10.97;;;4.70;;
11964;SDS011;6042;41.326;19.826;2022-12-20T04:32:11;9.27;;;5.00;;
11964;SDS011;6042;41.326;19.826;2022-12-20T04:34:40;5.10;;;4.47;;
11964;SDS011;6042;41.326;19.826;2022-12-20T04:37:09;6.63;;;4.70;;
11964;SDS011;6042;41.326;19.826;2022-12-20T04:39:46;5.27;;;4.40;;
11964;SDS011;6042;41.326;19.826;2022-12-20T04:42:20;6.30;;;4.63;;
11964;SDS011;6042;41.326;19.826;2022-12-20T04:44:51;8.70;;;4.60;;
11964;SDS011;6042;41.326;19.826;2022-12-20T04:47:25;6.13;;;4.83;;
11964;SDS011;6042;41.326;19.826;2022-12-20T04:49:54;5.93;;;4.60;;
11964;SDS011;6042;41.326;19.826;2022-12-20T04:52:22;6.00;;;4.77;;
11964;SDS011;6042;41.326;19.826;2022-12-20T04:55:13;6.50;;;4.80;;
11964;SDS011;6042;41.326;19.826;2022-12-20T04:57:43;8.40;;;4.20;;
11964;SDS011;6042;41.326;19.826;2022-12-20T05:00:12;5.37;;;4.43;;
11964;SDS011;6042;41.326;19.826;2022-12-20T05:02:49;5.30;;;4.47;;
11964;SDS011;6042;41.326;19.826;2022-12-20T05:05:21;6.50;;;4.70;;
11964;SDS011;6042;41.326;19.826;2022-12-20T05:07:52;5.37;;;4.83;;
11964;SDS011;6042;41.326;19.826;2022-12-20T05:10:22;7.30;;;5.03;;
11964;SDS011;6042;41.326;19.826;2022-12-20T05:12:53;5.97;;;4.77;;
11964;SDS011;6042;41.326;19.826;2022-12-20T05:15:32;5.73;;;4.87;;
11964;SDS011;6042;41.326;19.826;2022-12-20T05:18:04;4.73;;;4.23;;
11964;SDS011;6042;41.326;19.826;2022-12-20T05:20:56;4.67;;;4.10;;
11964;SDS011;6042;41.326;19.826;2022-12-20T05:23:46;5.13;;;3.70;;
11964;SDS011;6042;41.326;19.826;2022-12-20T05:26:45;6.57;;;4.10;;
11964;SDS011;6042;41.326;19.826;2022-12-20T05:29:16;5.73;;;4.10;;
11964;SDS011;6042;41.326;19.826;2022-12-20T05:31:45;6.37;;;4.67;;
11964;SDS011;6042;41.326;19.826;2022-12-20T05:34:15;4.50;;;4.00;;
11964;SDS011;6042;41.326;19.826;2022-12-20T05:36:49;4.23;;;3.83;;
11964;SDS011;6042;41.326;19.826;2022-12-20T05:39:20;5.63;;;4.77;;
11964;SDS011;6042;41.326;19.826;2022-12-20T05:41:52;5.97;;;4.73;;
11964;SDS011;6042;41.326;19.826;2022-12-20T05:44:24;4.77;;;4.20;;
11964;SDS011;6042;41.326;19.826;2022-12-20T05:46:55;5.10;;;4.60;;
11964;SDS011;6042;41.326;19.826;2022-12-20T05:49:29;7.37;;;4.47;;
11964;SDS011;6042;41.326;19.826;2022-12-20T05:52:00;6.93;;;4.07;;
11964;SDS011;6042;41.326;19.826;2022-12-20T05:54:29;9.03;;;4.33;;
11964;SDS011;6042;41.326;19.826;2022-12-20T05:57:05;5.20;;;4.13;;
11964;SDS011;6042;41.326;19.826;2022-12-20T05:59:36;7.50;;;4.40;;
11964;SDS011;6042;41.326;19.826;2022-12-20T06:02:13;6.60;;;4.77;;
11964;SDS011;6042;41.326;19.826;2022-12-20T06:04:46;10.67;;;5.30;;
11964;SDS011;6042;41.326;19.826;2022-12-20T06:07:18;6.80;;;4.87;;
11964;SDS011;6042;41.326;19.826;2022-12-20T06:09:52;6.67;;;4.20;;
11964;SDS011;6042;41.326;19.826;2022-12-20T06:12:25;6.57;;;4.63;;
11964;SDS011;6042;41.326;19.826;2022-12-20T06:14:55;10.03;;;4.50;;
11964;SDS011;6042;41.326;19.826;2022-12-20T06:17:23;5.33;;;4.30;;
11964;SDS011;6042;41.326;19.826;2022-12-20T06:19:54;5.00;;;4.00;;
11964;SDS011;6042;41.326;19.826;2022-12-20T06:22:23;5.67;;;4.67;;
11964;SDS011;6042;41.326;19.826;2022-12-20T06:24:55;4.53;;;4.13;;
11964;SDS011;6042;41.326;19.826;2022-12-20T06:27:28;6.73;;;5.00;;
11964;SDS011;6042;41.326;19.826;2022-12-20T06:30:06;7.33;;;4.97;;
11964;SDS011;6042;41.326;19.826;2022-12-20T06:32:56;8.33;;;4.97;;
11964;SDS011;6042;41.326;19.826;2022-12-20T06:35:26;7.70;;;5.03;;
11964;SDS011;6042;41.326;19.826;2022-12-20T06:37:55;9.77;;;4.90;;
11964;SDS011;6042;41.326;19.826;2022-12-20T06:40:26;12.73;;;5.60;;
11964;SDS011;6042;41.326;19.826;2022-12-20T06:42:58;6.70;;;4.47;;
11964;SDS011;6042;41.326;19.826;2022-12-20T06:45:27;18.30;;;5.57;;
11964;SDS011;6042;41.326;19.826;2022-12-20T06:48:04;17.07;;;5.93;;
11964;SDS011;6042;41.326;19.826;2022-12-20T06:50:35;14.70;;;5.77;;
11964;SDS011;6042;41.326;19.826;2022-12-20T06:53:05;14.77;;;5.80;;
11964;SDS011;6042;41.326;19.826;2022-12-20T06:55:34;13.50;;;5.47;;
11964;SDS011;6042;41.326;19.826;2022-12-20T06:58:04;6.67;;;4.80;;
11964;SDS011;6042;41.326;19.826;2022-12-20T07:00:35;7.97;;;5.07;;
11964;SDS011;6042;41.326;19.826;2022-12-20T07:03:04;18.70;;;6.27;;
11964;SDS011;6042;41.326;19.826;2022-12-20T07:05:33;14.43;;;6.10;;
11964;SDS011;6042;41.326;19.826;2022-12-20T07:08:03;9.53;;;7.00;;
11964;SDS011;6042;41.326;19.826;2022-12-20T07:10:32;18.00;;;7.20;;
11964;SDS011;6042;41.326;19.826;2022-12-20T07:13:03;11.10;;;7.87;;
11964;SDS011;6042;41.326;19.826;2022-12-20T07:15:31;14.50;;;7.60;;
11964;SDS011;6042;41.326;19.826;2022-12-20T07:18:00;16.00;;;8.80;;
11964;SDS011;6042;41.326;19.826;2022-12-20T07:20:32;14.03;;;7.10;;
11964;SDS011;6042;41.326;19.826;2022-12-20T07:23:02;11.27;;;6.83;;
11964;SDS011;6042;41.326;19.826;2022-12-20T07:25:33;8.03;;;6.20;;
11964;SDS011;6042;41.326;19.826;2022-12-20T07:28:02;16.13;;;7.10;;
11964;SDS011;6042;41.326;19.826;2022-12-20T07:30:31;14.13;;;7.30;;
11964;SDS011;6042;41.326;19.826;2022-12-20T07:32:59;25.07;;;6.80;;
11964;SDS011;6042;41.326;19.826;2022-12-20T07:35:28;8.77;;;5.63;;
11964;SDS011;6042;41.326;19.826;2022-12-20T07:37:57;11.80;;;6.37;;
11964;SDS011;6042;41.326;19.826;2022-12-20T07:40:27;20.40;;;10.90;;
11964;SDS011;6042;41.326;19.826;2022-12-20T07:42:56;9.90;;;6.30;;
11964;SDS011;6042;41.326;19.826;2022-12-20T07:45:25;9.63;;;5.83;;
11964;SDS011;6042;41.326;19.826;2022-12-20T07:47:53;8.67;;;6.20;;
11964;SDS011;6042;41.326;19.826;2022-12-20T07:50:26;11.30;;;6.03;;
11964;SDS011;6042;41.326;19.826;2022-12-20T07:52:55;7.60;;;6.13;;
11964;SDS011;6042;41.326;19.826;2022-12-20T07:55:25;9.03;;;6.60;;
11964;SDS011;6042;41.326;19.826;2022-12-20T07:57:59;10.10;;;6.67;;
11964;SDS011;6042;41.326;19.826;2022-12-20T08:00:31;13.30;;;6.83;;
11964;SDS011;6042;41.326;19.826;2022-12-20T08:03:00;16.60;;;7.50;;
11964;SDS011;6042;41.326;19.826;2022-12-20T08:05:33;8.83;;;5.20;;
11964;SDS011;6042;41.326;19.826;2022-12-20T08:08:04;8.37;;;6.07;;
11964;SDS011;6042;41.326;19.826;2022-12-20T08:10:35;9.53;;;4.97;;
11964;SDS011;6042;41.326;19.826;2022-12-20T08:13:04;6.77;;;4.70;;
11964;SDS011;6042;41.326;19.826;2022-12-20T08:15:34;8.00;;;5.50;;
11964;SDS011;6042;41.326;19.826;2022-12-20T08:18:03;6.73;;;4.67;;
11964;SDS011;6042;41.326;19.826;2022-12-20T08:20:33;7.80;;;5.03;;
11964;SDS011;6042;41.326;19.826;2022-12-20T08:23:02;10.07;;;5.27;;
11964;SDS011;6042;41.326;19.826;2022-12-20T08:25:31;11.10;;;4.87;;
11964;SDS011;6042;41.326;19.826;2022-12-20T08:28:08;10.43;;;5.57;;
11964;SDS011;6042;41.326;19.826;2022-12-20T08:30:37;7.53;;;6.40;;
11964;SDS011;6042;41.326;19.826;2022-12-20T08:33:06;8.67;;;5.87;;
11964;SDS011;6042;41.326;19.826;2022-12-20T08:35:34;8.43;;;5.97;;
11964;SDS011;6042;41.326;19.826;2022-12-20T08:38:03;9.77;;;6.30;;
11964;SDS011;6042;41.326;19.826;2022-12-20T08:40:33;11.87;;;7.40;;
11964;SDS011;6042;41.326;19.826;2022-12-20T08:43:01;10.93;;;6.87;;
11964;SDS011;6042;41.326;19.826;2022-12-20T08:45:37;10.80;;;7.33;;
11964;SDS011;6042;41.326;19.826;2022-12-20T08:48:06;11.70;;;7.33;;
11964;SDS011;6042;41.326;19.826;2022-12-20T08:50:34;11.50;;;7.83;;
11964;SDS011;6042;41.326;19.826;2022-12-20T08:53:03;10.40;;;7.80;;
11964;SDS011;6042;41.326;19.826;2022-12-20T08:55:32;9.87;;;8.17;;
11964;SDS011;6042;41.326;19.826;2022-12-20T08:58:00;17.93;;;8.57;;
11964;SDS011;6042;41.326;19.826;2022-12-20T09:00:29;17.57;;;8.33;;
11964;SDS011;6042;41.326;19.826;2022-12-20T09:02:59;11.63;;;7.90;;
11964;SDS011;6042;41.326;19.826;2022-12-20T09:05:28;13.43;;;8.03;;
11964;SDS011;6042;41.326;19.826;2022-12-20T09:07:57;17.40;;;8.00;;
11964;SDS011;6042;41.326;19.826;2022-12-20T09:10:25;16.07;;;8.63;;
11964;SDS011;6042;41.326;19.826;2022-12-20T09:12:54;18.27;;;8.80;;
11964;SDS011;6042;41.326;19.826;2022-12-20T09:15:23;11.90;;;7.90;;
11964;SDS011;6042;41.326;19.826;2022-12-20T09:17:53;8.67;;;7.67;;
11964;SDS011;6042;41.326;19.826;2022-12-20T09:20:23;15.00;;;7.77;;
11964;SDS011;6042;41.326;19.826;2022-12-20T09:22:53;9.73;;;7.67;;
11964;SDS011;6042;41.326;19.826;2022-12-20T09:25:22;10.67;;;7.80;;
11964;SDS011;6042;41.326;19.826;2022-12-20T09:27:51;9.00;;;7.30;;
11964;SDS011;6042;41.326;19.826;2022-12-20T09:30:20;11.03;;;6.60;;
11964;SDS011;6042;41.326;19.826;2022-12-20T09:32:49;9.27;;;7.00;;
11964;SDS011;6042;41.326;19.826;2022-12-20T09:35:18;9.17;;;6.97;;
11964;SDS011;6042;41.326;19.826;2022-12-20T09:37:50;11.37;;;7.53;;
11964;SDS011;6042;41.326;19.826;2022-12-20T09:40:19;16.67;;;7.97;;
11964;SDS011;6042;41.326;19.826;2022-12-20T09:42:51;13.83;;;9.13;;
11964;SDS011;6042;41.326;19.826;2022-12-20T09:45:21;15.10;;;8.97;;
11964;SDS011;6042;41.326;19.826;2022-12-20T09:47:53;15.13;;;9.07;;
11964;SDS011;6042;41.326;19.826;2022-12-20T09:50:25;14.07;;;8.00;;
11964;SDS011;6042;41.326;19.826;2022-12-20T09:53:07;8.13;;;6.10;;
11964;SDS011;6042;41.326;19.826;2022-12-20T09:55:48;9.80;;;5.97;;
11964;SDS011;6042;41.326;19.826;2022-12-20T09:58:25;8.73;;;5.80;;
11964;SDS011;6042;41.326;19.826;2022-12-20T10:01:10;10.27;;;6.17;;
11964;SDS011;6042;41.326;19.826;2022-12-20T10:03:51;17.70;;;6.10;;
11964;SDS011;6042;41.326;19.826;2022-12-20T10:06:23;16.50;;;8.53;;
11964;SDS011;6042;41.326;19.826;2022-12-20T10:08:59;12.83;;;6.83;;
11964;SDS011;6042;41.326;19.826;2022-12-20T10:11:49;6.53;;;5.30;;
11964;SDS011;6042;41.326;19.826;2022-12-20T10:14:38;10.47;;;7.43;;
11964;SDS011;6042;41.326;19.826;2022-12-20T10:17:23;15.87;;;10.07;;
11964;SDS011;6042;41.326;19.826;2022-12-20T10:20:06;19.83;;;10.37;;
11964;SDS011;6042;41.326;19.826;2022-12-20T10:22:49;18.33;;;10.73;;
11964;SDS011;6042;41.326;19.826;2022-12-20T10:25:28;13.20;;;9.93;;
11964;SDS011;6042;41.326;19.826;2022-12-20T10:27:59;15.17;;;10.57;;
11964;SDS011;6042;41.326;19.826;2022-12-20T10:30:31;15.93;;;11.90;;
11964;SDS011;6042;41.326;19.826;2022-12-20T10:33:02;10.97;;;8.37;;
11964;SDS011;6042;41.326;19.826;2022-12-20T10:35:32;14.33;;;8.80;;
11964;SDS011;6042;41.326;19.826;2022-12-20T10:38:06;11.37;;;8.33;;
11964;SDS011;6042;41.326;19.826;2022-12-20T10:40:40;15.60;;;8.60;;
11964;SDS011;6042;41.326;19.826;2022-12-20T10:43:35;14.43;;;8.27;;
11964;SDS011;6042;41.326;19.826;2022-12-20T10:46:09;11.07;;;8.17;;
11964;SDS011;6042;41.326;19.826;2022-12-20T10:48:40;12.97;;;8.10;;
11964;SDS011;6042;41.326;19.826;2022-12-20T10:51:14;13.53;;;8.40;;
11964;SDS011;6042;41.326;19.826;2022-12-20T10:53:51;18.70;;;9.67;;
11964;SDS011;6042;41.326;19.826;2022-12-20T10:56:23;20.27;;;9.80;;
11964;SDS011;6042;41.326;19.826;2022-12-20T10:58:55;13.10;;;10.40;;
11964;SDS011;6042;41.326;19.826;2022-12-20T11:01:27;15.83;;;10.47;;
11964;SDS011;6042;41.326;19.826;2022-12-20T11:03:59;19.40;;;9.70;;
11964;SDS011;6042;41.326;19.826;2022-12-20T11:06:39;11.70;;;9.43;;
11964;SDS011;6042;41.326;19.826;2022-12-20T11:09:20;11.00;;;8.63;;
11964;SDS011;6042;41.326;19.826;2022-12-20T11:14:44;16.73;;;9.50;;
11964;SDS011;6042;41.326;19.826;2022-12-20T11:17:21;12.57;;;9.10;;
11964;SDS011;6042;41.326;19.826;2022-12-20T11:20:03;14.23;;;9.70;;
11964;SDS011;6042;41.326;19.826;2022-12-20T11:22:45;12.30;;;9.27;;
11964;SDS011;6042;41.326;19.826;2022-12-20T11:25:27;13.70;;;9.40;;
11964;SDS011;6042;41.326;19.826;2022-12-20T11:28:17;11.37;;;8.30;;
11964;SDS011;6042;41.326;19.826;2022-12-20T11:31:01;13.57;;;8.40;;
11964;SDS011;6042;41.326;19.826;2022-12-20T11:33:39;12.43;;;9.03;;
11964;SDS011;6042;41.326;19.826;2022-12-20T11:36:21;11.43;;;7.47;;
11964;SDS011;6042;41.326;19.826;2022-12-20T11:39:00;11.40;;;7.93;;
11964;SDS011;6042;41.326;19.826;2022-12-20T11:41:36;11.53;;;8.67;;
11964;SDS011;6042;41.326;19.826;2022-12-20T11:44:17;10.93;;;7.97;;
11964;SDS011;6042;41.326;19.826;2022-12-20T11:46:57;10.03;;;7.50;;
11964;SDS011;6042;41.326;19.826;2022-12-20T11:49:41;11.93;;;7.57;;
11964;SDS011;6042;41.326;19.826;2022-12-20T11:52:22;11.97;;;8.17;;
11964;SDS011;6042;41.326;19.826;2022-12-20T11:55:03;12.13;;;8.30;;
11964;SDS011;6042;41.326;19.826;2022-12-20T11:57:36;14.40;;;8.57;;
11964;SDS011;6042;41.326;19.826;2022-12-20T12:00:33;17.10;;;9.47;;
11964;SDS011;6042;41.326;19.826;2022-12-20T12:03:07;13.90;;;10.77;;
11964;SDS011;6042;41.326;19.826;2022-12-20T12:05:42;13.93;;;9.80;;
11964;SDS011;6042;41.326;19.826;2022-12-20T12:08:15;17.23;;;9.67;;
11964;SDS011;6042;41.326;19.826;2022-12-20T12:10:51;13.27;;;8.50;;
11964;SDS011;6042;41.326;19.826;2022-12-20T12:13:24;10.17;;;7.97;;
11964;SDS011;6042;41.326;19.826;2022-12-20T12:15:59;14.83;;;8.47;;
11964;SDS011;6042;41.326;19.826;2022-12-20T12:18:33;9.20;;;8.07;;
11964;SDS011;6042;41.326;19.826;2022-12-20T12:21:05;9.90;;;7.30;;
11964;SDS011;6042;41.326;19.826;2022-12-20T12:23:40;13.57;;;7.97;;
11964;SDS011;6042;41.326;19.826;2022-12-20T12:26:18;13.67;;;8.40;;
11964;SDS011;6042;41.326;19.826;2022-12-20T12:28:51;9.50;;;8.50;;
11964;SDS011;6042;41.326;19.826;2022-12-20T12:31:24;9.33;;;8.37;;
11964;SDS011;6042;41.326;19.826;2022-12-20T12:34:09;10.27;;;9.17;;
11964;SDS011;6042;41.326;19.826;2022-12-20T12:36:55;11.70;;;8.63;;
11964;SDS011;6042;41.326;19.826;2022-12-20T12:45:51;11.43;;;9.90;;
11964;SDS011;6042;41.326;19.826;2022-12-20T12:48:30;12.80;;;10.63;;
11964;SDS011;6042;41.326;19.826;2022-12-20T12:51:03;14.43;;;10.83;;
11964;SDS011;6042;41.326;19.826;2022-12-20T12:53:34;26.97;;;12.77;;
11964;SDS011;6042;41.326;19.826;2022-12-20T13:02:23;14.43;;;11.03;;
11964;SDS011;6042;41.326;19.826;2022-12-20T13:04:57;19.80;;;11.70;;
11964;SDS011;6042;41.326;19.826;2022-12-20T13:07:38;22.23;;;12.20;;
11964;SDS011;6042;41.326;19.826;2022-12-20T13:13:26;19.80;;;12.33;;
11964;SDS011;6042;41.326;19.826;2022-12-20T13:16:11;18.50;;;11.40;;
11964;SDS011;6042;41.326;19.826;2022-12-20T13:19:15;18.10;;;11.77;;
11964;SDS011;6042;41.326;19.826;2022-12-20T13:21:46;16.70;;;11.33;;
11964;SDS011;6042;41.326;19.826;2022-12-20T13:27:17;22.17;;;12.63;;
11964;SDS011;6042;41.326;19.826;2022-12-20T13:39:00;14.23;;;9.60;;
11964;SDS011;6042;41.326;19.826;2022-12-20T13:41:36;13.70;;;9.80;;
11964;SDS011;6042;41.326;19.826;2022-12-20T13:44:26;13.37;;;10.13;;
11964;SDS011;6042;41.326;19.826;2022-12-20T13:47:05;20.00;;;10.87;;
11964;SDS011;6042;41.326;19.826;2022-12-20T13:49:44;19.00;;;11.43;;
11964;SDS011;6042;41.326;19.826;2022-12-20T13:52:18;28.80;;;11.30;;
11964;SDS011;6042;41.326;19.826;2022-12-20T13:54:56;20.03;;;11.57;;
11964;SDS011;6042;41.326;19.826;2022-12-20T13:57:28;21.53;;;11.93;;
11964;SDS011;6042;41.326;19.826;2022-12-20T14:00:01;20.80;;;12.80;;
11964;SDS011;6042;41.326;19.826;2022-12-20T14:02:34;18.10;;;12.13;;
11964;SDS011;6042;41.326;19.826;2022-12-20T14:05:12;13.37;;;11.17;;
11964;SDS011;6042;41.326;19.826;2022-12-20T14:07:45;13.07;;;10.77;;
11964;SDS011;6042;41.326;19.826;2022-12-20T14:10:22;14.73;;;10.40;;
11964;SDS011;6042;41.326;19.826;2022-12-20T14:12:52;15.57;;;9.90;;
11964;SDS011;6042;41.326;19.826;2022-12-20T14:15:26;21.00;;;11.27;;
11964;SDS011;6042;41.326;19.826;2022-12-20T14:18:03;16.90;;;11.13;;
11964;SDS011;6042;41.326;19.826;2022-12-20T14:20:34;16.93;;;11.63;;
11964;SDS011;6042;41.326;19.826;2022-12-20T14:23:04;15.33;;;12.03;;
11964;SDS011;6042;41.326;19.826;2022-12-20T14:25:40;18.63;;;11.93;;
11964;SDS011;6042;41.326;19.826;2022-12-20T14:28:16;15.70;;;11.57;;
11964;SDS011;6042;41.326;19.826;2022-12-20T14:30:53;17.27;;;11.40;;
11964;SDS011;6042;41.326;19.826;2022-12-20T14:33:25;16.03;;;11.73;;
11964;SDS011;6042;41.326;19.826;2022-12-20T14:36:06;23.23;;;12.03;;
11964;SDS011;6042;41.326;19.826;2022-12-20T14:38:36;21.33;;;11.97;;
11964;SDS011;6042;41.326;19.826;2022-12-20T14:44:01;19.20;;;11.60;;
11964;SDS011;6042;41.326;19.826;2022-12-20T14:46:32;23.63;;;12.63;;
11964;SDS011;6042;41.326;19.826;2022-12-20T14:49:07;18.60;;;12.40;;
11964;SDS011;6042;41.326;19.826;2022-12-20T14:51:44;21.53;;;14.30;;
11964;SDS011;6042;41.326;19.826;2022-12-20T14:54:15;22.97;;;13.83;;
11964;SDS011;6042;41.326;19.826;2022-12-20T14:57:14;26.07;;;13.47;;
11964;SDS011;6042;41.326;19.826;2022-12-20T14:59:57;19.10;;;12.70;;
11964;SDS011;6042;41.326;19.826;2022-12-20T15:02:35;21.73;;;12.53;;
11964;SDS011;6042;41.326;19.826;2022-12-20T15:05:08;20.67;;;13.43;;
11964;SDS011;6042;41.326;19.826;2022-12-20T15:07:52;24.70;;;13.50;;
11964;SDS011;6042;41.326;19.826;2022-12-20T15:10:20;18.93;;;12.20;;
11964;SDS011;6042;41.326;19.826;2022-12-20T15:12:51;22.83;;;13.60;;
11964;SDS011;6042;41.326;19.826;2022-12-20T15:15:19;20.93;;;12.67;;
11964;SDS011;6042;41.326;19.826;2022-12-20T15:17:55;24.43;;;13.07;;
11964;SDS011;6042;41.326;19.826;2022-12-20T15:20:23;23.03;;;13.33;;
11964;SDS011;6042;41.326;19.826;2022-12-20T15:22:52;18.00;;;12.47;;
11964;SDS011;6042;41.326;19.826;2022-12-20T15:25:21;18.97;;;13.37;;
11964;SDS011;6042;41.326;19.826;2022-12-20T15:27:51;20.13;;;13.57;;
11964;SDS011;6042;41.326;19.826;2022-12-20T15:30:20;27.30;;;14.93;;
11964;SDS011;6042;41.326;19.826;2022-12-20T15:32:49;21.37;;;13.97;;
11964;SDS011;6042;41.326;19.826;2022-12-20T15:35:23;30.47;;;14.03;;
11964;SDS011;6042;41.326;19.826;2022-12-20T15:37:52;20.10;;;13.53;;
11964;SDS011;6042;41.326;19.826;2022-12-20T15:40:21;21.47;;;13.00;;
11964;SDS011;6042;41.326;19.826;2022-12-20T15:42:51;20.00;;;13.50;;
11964;SDS011;6042;41.326;19.826;2022-12-20T15:45:20;23.80;;;15.93;;
11964;SDS011;6042;41.326;19.826;2022-12-20T15:47:50;29.47;;;16.87;;
11964;SDS011;6042;41.326;19.826;2022-12-20T15:50:18;24.43;;;14.83;;
11964;SDS011;6042;41.326;19.826;2022-12-20T15:52:47;23.17;;;13.93;;
11964;SDS011;6042;41.326;19.826;2022-12-20T15:55:16;22.87;;;14.87;;